Time;durP1;ratioP1;P1;durP2;ratioP2;P2;SDS_P1;SDS_P2;PMS_P1;PMS_P2;Temp;Humidity;BMP_temperature;BMP_pressure;BME280_temperature;BME280_humidity;BME280_pressure;Samples;Min_cycle;Max_cycle;Signal;HPM_P1;HPM_P2
2022/08/20 00:00:23;;;;;;;16.67;7.63;;;;;;;25.75;66.42;99950.69;4931475;28;20040;-72
2022/08/20 00:02:53;;;;;;;9.20;8.15;;;;;;;25.70;66.67;99954.44;4930789;28;20115;-72
2022/08/20 00:05:27;;;;;;;17.05;8.77;;;;;;;25.63;66.91;99945.81;4931212;28;20071;-72
2022/08/20 00:07:54;;;;;;;13.88;8.60;;;;;;;25.66;67.12;99949.22;4930802;28;20034;-70
2022/08/20 00:10:21;;;;;;;16.55;8.25;;;;;;;25.63;66.79;99952.00;4930822;28;20031;-73
2022/08/20 00:12:48;;;;;;;13.20;8.77;;;;;;;25.60;66.75;99959.16;4930958;28;20054;-72
2022/08/20 00:15:20;;;;;;;14.48;8.57;;;;;;;25.54;67.33;99952.28;4931099;28;20102;-72
2022/08/20 00:17:49;;;;;;;15.63;8.48;;;;;;;25.40;66.78;99941.31;4931076;28;20086;-73
2022/08/20 00:20:15;;;;;;;16.42;8.13;;;;;;;25.47;67.94;99953.41;4931062;28;20027;-72
2022/08/20 00:22:41;;;;;;;13.25;9.15;;;;;;;25.40;68.07;99952.75;4930423;28;20767;-69
2022/08/20 00:25:07;;;;;;;15.18;8.73;;;;;;;25.41;68.28;99953.59;4930717;28;20032;-72
2022/08/20 00:27:33;;;;;;;14.07;8.73;;;;;;;25.24;68.93;99933.84;4930912;28;20012;-72
2022/08/20 00:29:58;;;;;;;18.73;9.00;;;;;;;25.19;69.15;99904.09;4931633;28;20119;-71
2022/08/20 00:32:24;;;;;;;13.18;8.63;;;;;;;25.36;69.75;99945.81;4931081;28;20122;-75
2022/08/20 00:34:49;;;;;;;21.08;8.80;;;;;;;25.48;69.66;99941.91;4930560;28;20020;-73
2022/08/20 00:37:15;;;;;;;17.40;8.80;;;;;;;25.55;69.08;99937.31;4930290;28;20024;-73
2022/08/20 00:39:40;;;;;;;15.00;9.00;;;;;;;25.55;69.67;99935.50;4930794;28;20024;-76
2022/08/20 00:42:06;;;;;;;15.20;9.35;;;;;;;25.58;70.32;99934.53;4930412;28;20386;-72
2022/08/20 00:44:32;;;;;;;20.90;9.05;;;;;;;25.60;70.66;99919.50;4930336;28;20024;-73
2022/08/20 00:46:57;;;;;;;14.80;9.45;;;;;;;25.66;69.99;99920.16;4930719;28;20032;-70
2022/08/20 00:49:26;;;;;;;15.65;9.25;;;;;;;25.73;69.83;99917.28;4930603;28;20050;-73
2022/08/20 00:52:06;;;;;;;16.08;8.70;;;;;;;25.81;69.84;99925.84;4930028;28;20477;-72
2022/08/20 00:54:45;;;;;;;15.07;9.13;;;;;;;25.71;70.53;99925.28;4930371;28;20489;-73
2022/08/20 00:57:27;;;;;;;16.75;8.80;;;;;;;25.31;71.15;99893.09;4930586;28;20077;-73
2022/08/20 00:59:53;;;;;;;18.88;8.90;;;;;;;25.35;70.37;99912.38;4930447;28;20892;-73
2022/08/20 01:02:21;;;;;;;13.10;9.00;;;;;;;25.29;70.11;99921.34;4930381;28;20107;-71
2022/08/20 01:04:52;;;;;;;18.73;9.10;;;;;;;25.18;70.07;99931.41;4930532;28;20128;-70
2022/08/20 01:07:19;;;;;;;19.00;9.10;;;;;;;25.10;69.13;99901.75;4930059;28;20027;-70
2022/08/20 01:09:45;;;;;;;18.85;8.93;;;;;;;24.99;68.90;99887.09;4930241;28;20055;-73
2022/08/20 01:12:13;;;;;;;11.73;8.52;;;;;;;25.03;68.83;99922.19;4930053;28;20023;-71
2022/08/20 01:14:44;;;;;;;16.20;9.00;;;;;;;24.87;69.38;99921.81;4930052;28;20028;-72
2022/08/20 01:17:16;;;;;;;13.90;9.13;;;;;;;24.79;68.99;99908.00;4930252;28;20031;-72
2022/08/20 01:19:46;;;;;;;13.68;8.77;;;;;;;24.75;69.41;99901.06;4929666;28;20379;-72
2022/08/20 01:25:11;;;;;;;11.07;9.23;;;;;;;24.68;69.28;99903.91;4930108;28;20042;-73
2022/08/20 01:27:38;;;;;;;12.05;9.13;;;;;;;24.68;69.49;99910.97;4930313;28;20035;-75
2022/08/20 01:30:05;;;;;;;16.48;9.75;;;;;;;24.42;69.98;99883.53;4931390;28;20539;-69
2022/08/20 01:32:30;;;;;;;11.35;9.38;;;;;;;24.52;70.73;99905.25;4929960;28;20852;-71
2022/08/20 01:34:56;;;;;;;12.50;9.00;;;;;;;24.33;70.57;99878.56;4928771;28;20166;-72
2022/08/20 01:37:21;;;;;;;16.10;9.65;;;;;;;24.51;70.67;99901.75;4929817;28;20035;-69
2022/08/20 01:39:47;;;;;;;15.00;8.90;;;;;;;24.49;70.99;99908.00;4929812;28;20181;-70
2022/08/20 01:42:24;;;;;;;16.10;9.27;;;;;;;24.45;71.21;99909.84;4929495;28;20032;-71
2022/08/20 01:44:51;;;;;;;14.63;9.45;;;;;;;24.40;71.49;99909.13;4929779;28;20066;-73
2022/08/20 01:47:25;;;;;;;19.95;10.00;;;;;;;24.44;71.54;99902.00;4929729;28;20035;-70
2022/08/20 01:49:55;;;;;;;14.13;9.27;;;;;;;24.47;71.78;99902.72;4929390;28;20028;-73
2022/08/20 01:52:40;;;;;;;14.23;9.18;;;;;;;24.48;72.02;99898.34;4929526;28;20031;-72
2022/08/20 01:55:06;;;;;;;11.65;8.70;;;;;;;24.42;72.41;99890.59;4929586;28;20028;-72
2022/08/20 01:57:32;;;;;;;15.32;9.77;;;;;;;24.43;72.62;99910.81;4929528;28;20043;-72
2022/08/20 01:59:58;;;;;;;17.23;9.40;;;;;;;24.30;73.22;99899.72;4929665;28;20107;-70
2022/08/20 02:02:25;;;;;;;14.15;10.20;;;;;;;24.22;73.58;99892.03;4929830;28;20031;-72
2022/08/20 02:04:50;;;;;;;14.77;9.27;;;;;;;24.13;73.84;99882.63;4929757;28;20089;-69
2022/08/20 02:07:20;;;;;;;15.82;9.10;;;;;;;24.13;73.42;99892.31;4929131;28;20027;-72
2022/08/20 02:09:47;;;;;;;17.65;9.75;;;;;;;24.17;73.18;99894.81;4929190;28;20039;-73
2022/08/20 02:12:13;;;;;;;14.55;9.68;;;;;;;24.04;73.86;99885.53;4929094;28;20501;-72
2022/08/20 02:14:41;;;;;;;14.35;9.38;;;;;;;23.82;73.87;99858.88;4929573;28;20062;-73
2022/08/20 02:17:08;;;;;;;15.63;9.48;;;;;;;23.82;73.90;99861.50;4929405;28;20032;-73
2022/08/20 02:19:42;;;;;;;18.88;9.77;;;;;;;24.01;74.02;99893.50;4929063;28;20038;-72
2022/08/20 02:22:16;;;;;;;17.10;9.55;;;;;;;24.00;74.14;99899.69;4929394;28;20439;-73
2022/08/20 02:24:42;;;;;;;16.98;9.75;;;;;;;23.96;74.75;99893.63;4929282;28;20114;-71
2022/08/20 02:27:08;;;;;;;15.18;10.10;;;;;;;23.95;74.62;99894.56;4929530;28;20035;-75
2022/08/20 02:29:34;;;;;;;13.63;9.73;;;;;;;23.72;74.90;99882.81;4930485;28;20031;-73
2022/08/20 02:31:59;;;;;;;10.88;9.23;;;;;;;23.65;75.24;99891.81;4929168;28;20027;-73
2022/08/20 02:34:25;;;;;;;14.05;9.60;;;;;;;23.39;74.72;99847.69;4928959;28;20036;-70
2022/08/20 02:36:51;;;;;;;17.27;10.07;;;;;;;23.64;74.24;99890.09;4928621;28;20031;-73
2022/08/20 02:39:16;;;;;;;20.42;9.50;;;;;;;23.55;73.46;99872.75;4928984;28;20056;-74
2022/08/20 02:41:42;;;;;;;19.45;10.20;;;;;;;23.63;73.11;99877.81;4930859;28;20039;-71
2022/08/20 02:44:08;;;;;;;13.88;9.23;;;;;;;23.64;72.33;99876.91;4929054;28;20448;-71
2022/08/20 02:46:34;;;;;;;14.55;9.93;;;;;;;23.61;73.02;99884.88;4912825;28;20151;-69
2022/08/20 02:49:00;;;;;;;14.23;10.10;;;;;;;23.64;73.02;99883.94;4932162;28;20541;-73
2022/08/20 02:51:26;;;;;;;15.00;9.82;;;;;;;23.50;73.38;99892.19;4947766;28;20027;-69
2022/08/20 02:53:51;;;;;;;14.25;10.25;;;;;;;23.00;74.04;99838.09;4951974;28;20470;-74
2022/08/20 02:56:18;;;;;;;11.35;9.55;;;;;;;23.38;73.83;99893.41;4952215;28;20397;-73
2022/08/20 02:58:44;;;;;;;11.88;10.20;;;;;;;23.40;73.43;99881.03;4951964;28;20039;-75
2022/08/20 03:01:13;;;;;;;13.20;9.80;;;;;;;23.47;73.58;99892.31;4943161;28;20485;-72
2022/08/20 03:03:40;;;;;;;;;;;;;;;23.50;73.10;99894.84;4933219;28;20072;-72
2022/08/20 03:06:07;;;;;;;15.40;9.43;;;;;;;23.47;72.97;99889.66;4932722;28;19914;-71
2022/08/20 03:08:33;;;;;;;17.60;10.45;;;;;;;23.46;73.43;99893.19;4932662;28;20028;-75
2022/08/20 03:10:58;;;;;;;16.42;9.75;;;;;;;23.34;73.16;99871.53;4932671;28;20038;-75
2022/08/20 03:13:24;;;;;;;16.58;9.95;;;;;;;23.45;73.46;99887.03;4932428;28;20047;-72
2022/08/20 03:16:01;;;;;;;14.95;10.60;;;;;;;23.38;73.60;99873.19;4932960;28;20035;-75
2022/08/20 03:18:34;;;;;;;22.38;10.88;;;;;;;23.50;73.84;99897.47;4932436;28;20513;-75
2022/08/20 03:20:59;;;;;;;13.65;10.57;;;;;;;23.46;73.56;99887.94;4932723;28;20036;-75
2022/08/20 03:23:25;;;;;;;14.73;10.35;;;;;;;23.46;73.94;99894.06;4932733;28;20032;-72
2022/08/20 03:25:50;;;;;;;18.48;10.48;;;;;;;23.54;73.62;99901.75;4932577;28;20024;-79
2022/08/20 03:28:18;;;;;;;16.63;10.82;;;;;;;23.44;73.31;99877.44;4932516;28;20401;-75
2022/08/20 03:30:43;;;;;;;20.05;10.68;;;;;;;23.56;73.54;99903.47;4936699;28;20055;-72
2022/08/20 03:33:09;;;;;;;14.25;10.30;;;;;;;23.70;72.65;99910.13;4951863;28;20071;-72
2022/08/20 03:35:36;;;;;;;16.52;10.60;;;;;;;23.75;73.07;99908.22;4951285;28;20093;-75
2022/08/20 03:38:06;;;;;;;15.18;10.30;;;;;;;23.90;72.40;99909.59;4948894;28;20035;-74
2022/08/20 03:40:33;;;;;;;22.15;11.55;;;;;;;24.06;71.49;99902.16;4934811;28;20059;-71
2022/08/20 03:42:59;;;;;;;24.00;11.27;;;;;;;24.19;70.68;99908.81;4932345;28;20031;-74
2022/08/20 03:45:26;;;;;;;18.70;11.15;;;;;;;24.10;70.88;99913.50;4932183;28;20110;-72
2022/08/20 03:47:55;;;;;;;20.92;10.60;;;;;;;24.01;71.19;99910.22;4932080;28;20059;-71
2022/08/20 03:50:24;;;;;;;20.63;11.25;;;;;;;23.87;72.15;99914.97;4932347;28;20489;-73
2022/08/20 03:52:52;;;;;;;18.92;11.10;;;;;;;23.85;71.55;99906.22;4931973;28;20502;-79
2022/08/20 03:55:18;;;;;;;22.75;10.98;;;;;;;23.84;72.04;99922.94;4931791;28;20556;-74
2022/08/20 03:57:50;;;;;;;18.80;10.80;;;;;;;23.71;72.28;99904.84;4931542;28;20039;-75
2022/08/20 04:00:20;;;;;;;18.27;10.98;;;;;;;23.74;72.45;99923.19;4931943;28;20032;-71
2022/08/20 04:02:46;;;;;;;16.52;10.50;;;;;;;23.70;72.17;99918.03;4950458;28;20401;-75
2022/08/20 04:05:12;;;;;;;18.60;11.48;;;;;;;23.72;72.34;99918.88;4951259;28;20024;-73
2022/08/20 04:07:37;;;;;;;19.55;11.43;;;;;;;23.73;72.61;99915.34;4950973;28;20035;-74
2022/08/20 04:10:08;;;;;;;18.88;11.02;;;;;;;23.68;70.35;99906.69;4934003;28;20134;-74
2022/08/20 04:12:39;;;;;;;17.48;10.65;;;;;;;23.68;69.75;99893.50;4944025;28;20051;-72
2022/08/20 04:15:11;;;;;;;18.58;10.82;;;;;;;23.88;68.71;99907.00;4931959;28;20119;-74
2022/08/20 04:17:40;;;;;;;21.27;11.32;;;;;;;23.95;69.56;99925.31;4931738;28;20449;-75
2022/08/20 04:20:07;;;;;;;;;;;;;;;23.61;71.62;99921.78;4932522;28;20144;-75
2022/08/20 04:22:32;;;;;;;26.75;13.32;;;;;;;23.54;72.59;99925.47;4932140;28;20411;-76
2022/08/20 04:24:57;;;;;;;20.00;10.85;;;;;;;23.56;73.57;99926.28;4931961;28;20063;-75
2022/08/20 04:27:23;;;;;;;19.15;10.95;;;;;;;23.31;73.68;99897.94;4910623;28;20188;-75
2022/08/20 04:29:48;;;;;;;13.82;11.13;;;;;;;23.67;73.61;99932.16;4910480;28;20445;-75
2022/08/20 04:32:14;;;;;;;19.73;11.30;;;;;;;23.74;72.23;99903.88;4921652;28;20418;-73
2022/08/20 04:34:39;;;;;;;46.25;12.05;;;;;;;23.80;71.14;99897.56;4927983;28;20464;-72
2022/08/20 04:37:05;;;;;;;16.88;9.98;;;;;;;24.06;70.08;99923.25;4928894;28;20036;-72
2022/08/20 04:39:32;;;;;;;21.25;10.27;;;;;;;24.12;69.78;99923.09;4929246;28;20096;-78
2022/08/20 04:41:58;;;;;;;21.27;11.45;;;;;;;24.23;69.35;99928.91;4928957;28;20118;-72
2022/08/20 04:44:23;;;;;;;16.30;10.05;;;;;;;24.17;69.52;99909.78;4929524;28;20548;-75
2022/08/20 04:46:49;;;;;;;18.95;10.38;;;;;;;24.23;69.04;99915.72;4929021;28;20051;-71
2022/08/20 04:49:14;;;;;;;20.73;10.63;;;;;;;24.22;68.96;99923.69;4929457;28;20035;-74
2022/08/20 04:51:40;;;;;;;17.02;11.48;;;;;;;24.27;68.99;99916.50;4924940;28;20036;-74
2022/08/20 04:54:05;;;;;;;16.80;11.38;;;;;;;24.25;69.20;99925.38;4918895;28;20467;-73
2022/08/20 04:56:37;;;;;;;13.63;10.77;;;;;;;24.08;69.42;99888.94;4925447;28;20558;-74
2022/08/20 04:59:05;;;;;;;19.38;11.38;;;;;;;24.23;69.78;99904.31;4928421;28;20070;-73
2022/08/20 05:01:31;;;;;;;18.25;12.13;;;;;;;24.36;70.24;99921.53;4930362;28;20034;-74
2022/08/20 05:03:58;;;;;;;18.25;12.10;;;;;;;24.46;70.73;99939.72;4930132;28;20502;-73
2022/08/20 05:06:27;;;;;;;21.13;11.43;;;;;;;23.99;73.05;99925.22;4935774;28;20031;-73
2022/08/20 05:08:54;;;;;;;15.52;11.25;;;;;;;23.90;74.15;99942.09;4936598;28;20027;-73
2022/08/20 05:11:21;;;;;;;15.23;11.02;;;;;;;23.85;74.98;99951.03;4935729;28;20042;-74
2022/08/20 05:13:46;;;;;;;18.40;12.57;;;;;;;23.66;76.55;99942.75;4934817;28;20442;-75
2022/08/20 05:16:12;;;;;;;21.40;12.13;;;;;;;23.67;76.42;99929.53;4930253;28;20024;-71
2022/08/20 05:18:38;;;;;;;18.30;12.82;;;;;;;23.89;76.23;99943.00;4930150;28;20039;-72
2022/08/20 05:21:06;;;;;;;15.57;12.02;;;;;;;24.03;75.48;99950.56;4930103;28;20028;-73
2022/08/20 05:23:34;;;;;;;13.63;11.57;;;;;;;24.18;75.33;99948.44;4929730;28;20032;-72
2022/08/20 05:26:04;;;;;;;16.50;11.13;;;;;;;24.18;74.98;99938.72;4929948;28;20394;-75
2022/08/20 05:28:31;;;;;;;15.48;11.38;;;;;;;24.23;74.29;99925.44;4931720;28;20046;-72
2022/08/20 05:30:58;;;;;;;20.67;12.13;;;;;;;24.43;73.82;99940.69;4930207;28;20024;-72
2022/08/20 05:33:24;;;;;;;14.45;11.48;;;;;;;24.61;72.99;99935.78;4930018;28;20071;-69
2022/08/20 05:35:52;;;;;;;28.92;12.48;;;;;;;24.65;73.36;99934.78;4929986;28;20063;-72
2022/08/20 05:38:20;;;;;;;16.80;11.95;;;;;;;24.75;73.68;99935.38;4929776;28;20394;-72
2022/08/20 05:40:47;;;;;;;20.17;11.95;;;;;;;24.82;73.77;99940.47;4929835;28;20024;-69
2022/08/20 05:43:13;;;;;;;20.67;11.68;;;;;;;24.90;72.83;99940.22;4930610;28;20058;-71
2022/08/20 05:45:40;;;;;;;16.83;10.65;;;;;;;24.91;72.49;99941.94;4929752;28;20028;-70
2022/08/20 05:48:12;;;;;;;17.83;11.85;;;;;;;24.94;73.39;99933.91;4930018;28;20036;-72
2022/08/20 05:50:39;;;;;;;14.50;11.45;;;;;;;24.78;73.47;99909.75;4929168;28;20031;-70
2022/08/20 05:53:05;;;;;;;15.70;11.23;;;;;;;25.06;75.53;99939.72;4929728;28;20091;-74
2022/08/20 05:55:31;;;;;;;18.02;11.27;;;;;;;25.18;72.33;99941.97;4934293;28;20394;-73
2022/08/20 05:57:58;;;;;;;16.23;11.15;;;;;;;25.19;71.66;99918.13;4949241;28;20468;-71
2022/08/20 06:00:24;;;;;;;17.75;11.35;;;;;;;25.28;72.62;99916.97;4938819;28;20118;-73
2022/08/20 06:05:34;;;;;;;14.35;11.13;;;;;;;25.39;71.04;99936.94;4948628;28;20062;-74
2022/08/20 06:08:00;;;;;;;18.60;12.30;;;;;;;25.43;71.11;99947.34;4938743;28;20481;-71
2022/08/20 06:10:25;;;;;;;17.60;11.85;;;;;;;25.46;70.91;99939.34;4929567;28;20027;-74
2022/08/20 06:12:52;;;;;;;18.98;11.88;;;;;;;25.54;71.50;99941.72;4945284;28;20048;-74
2022/08/20 06:15:19;;;;;;;15.27;11.10;;;;;;;25.29;70.82;99913.44;4948884;28;20492;-74
2022/08/20 06:17:44;;;;;;;35.55;12.50;;;;;;;25.42;70.96;99923.63;4948921;28;20027;-72
2022/08/20 06:20:11;;;;;;;15.45;10.77;;;;;;;25.67;70.50;99927.16;4949069;28;20034;-72
2022/08/20 06:22:37;;;;;;;16.10;10.55;;;;;;;25.77;69.31;99925.06;4952442;28;20027;-72
2022/08/20 06:25:04;;;;;;;13.57;10.40;;;;;;;26.03;68.06;99927.72;4950860;28;20036;-72
2022/08/20 06:27:30;;;;;;;11.63;9.88;;;;;;;26.30;67.30;99933.81;4952590;28;20031;-73
2022/08/20 06:29:55;;;;;;;13.93;11.15;;;;;;;26.38;70.16;99913.22;4952074;28;20035;-72
2022/08/20 06:32:23;;;;;;;15.73;10.70;;;;;;;26.60;69.72;99917.69;4952406;28;20046;-73
2022/08/20 06:34:51;;;;;;;15.95;11.10;;;;;;;26.77;70.45;99927.66;4952276;28;20088;-74
2022/08/20 06:37:19;;;;;;;21.42;11.95;;;;;;;26.86;68.92;99924.66;4952197;28;20512;-72
2022/08/20 06:39:45;;;;;;;18.58;12.00;;;;;;;27.02;71.53;99929.34;4952717;28;20110;-73
2022/08/20 06:42:11;;;;;;;16.80;10.95;;;;;;;27.04;71.18;99928.38;4951904;28;20193;-74
2022/08/20 06:44:36;;;;;;;12.80;11.23;;;;;;;27.09;68.60;99922.84;4951839;28;20019;-73
2022/08/20 06:47:04;;;;;;;17.88;11.00;;;;;;;27.18;68.19;99917.19;4951618;28;20027;-72
2022/08/20 06:49:30;;;;;;;15.13;10.88;;;;;;;27.10;68.61;99898.09;4951540;28;20497;-73
2022/08/20 06:51:56;;;;;;;16.13;10.75;;;;;;;27.41;66.20;99908.31;4952076;28;20035;-70
2022/08/20 06:54:21;;;;;;;13.18;10.70;;;;;;;27.50;65.01;99911.50;4952053;28;20030;-74
2022/08/20 06:56:47;;;;;;;11.50;10.25;;;;;;;27.58;65.35;99918.22;4952122;28;20027;-74
2022/08/20 06:59:13;;;;;;;19.67;10.10;;;;;;;27.66;64.49;99909.91;4952133;28;20492;-73
2022/08/20 07:01:38;;;;;;;13.63;9.93;;;;;;;27.66;66.07;99917.03;4934807;28;20032;-71
2022/08/20 07:04:06;;;;;;;21.88;10.07;;;;;;;27.67;66.01;99918.75;4952079;28;20523;-76
2022/08/20 07:06:31;;;;;;;12.10;9.30;;;;;;;27.40;66.15;99863.31;4952045;28;20046;-73
2022/08/20 07:08:57;;;;;;;12.32;8.98;;;;;;;27.84;62.47;99910.03;4952209;28;20466;-70
2022/08/20 07:11:23;;;;;;;12.95;9.88;;;;;;;27.93;64.75;99904.34;4951903;28;20023;-74
2022/08/20 07:13:48;;;;;;;15.43;9.25;;;;;;;28.16;61.18;99910.44;4952180;28;20055;-71
2022/08/20 07:16:15;;;;;;;11.98;9.20;;;;;;;28.33;61.46;99902.56;4951892;28;20033;-72
2022/08/20 07:18:41;;;;;;;12.15;8.45;;;;;;;28.36;58.17;99888.28;4951726;28;20402;-71
2022/08/20 07:21:07;;;;;;;12.32;8.98;;;;;;;28.62;57.56;99908.31;4951796;28;20046;-77
2022/08/20 07:23:32;;;;;;;12.13;9.00;;;;;;;28.69;58.22;99885.03;4951826;28;20066;-74
2022/08/20 07:25:58;;;;;;;11.60;8.43;;;;;;;28.82;56.47;99904.72;4951884;28;20058;-75
2022/08/20 07:28:31;;;;;;;12.15;8.40;;;;;;;29.02;55.75;99895.81;4951711;28;20540;-74
2022/08/20 07:33:43;;;;;;;11.65;8.55;;;;;;;29.03;57.35;99886.03;4931823;28;20065;-74
2022/08/20 07:36:09;;;;;;;10.82;8.05;;;;;;;29.02;56.44;99876.34;4932365;28;20027;-74
2022/08/20 07:38:34;;;;;;;13.13;9.57;;;;;;;29.24;58.73;99897.38;4932614;28;20070;-74
2022/08/20 07:41:03;;;;;;;11.32;8.77;;;;;;;29.23;58.66;99897.47;4932622;28;20055;-71
2022/08/20 07:43:29;;;;;;;15.18;9.27;;;;;;;29.28;57.72;99890.13;4932483;28;20032;-73
2022/08/20 07:46:00;;;;;;;11.75;8.60;;;;;;;29.30;58.09;99886.47;4932315;28;20032;-74
2022/08/20 07:48:27;;;;;;;14.45;8.63;;;;;;;29.34;58.90;99879.22;4996762;28;20032;-74
2022/08/20 07:50:54;;;;;;;10.85;8.23;;;;;;;29.41;56.36;99874.44;4915413;28;20430;-76
2022/08/20 07:53:20;;;;;;;11.55;8.82;;;;;;;29.49;56.05;99873.09;4932311;28;20038;-73
2022/08/20 07:55:46;;;;;;;15.32;9.45;;;;;;;29.48;56.84;99874.03;4932123;28;20032;-73
2022/08/20 07:58:14;;;;;;;17.85;9.93;;;;;;;29.64;57.52;99875.91;4932332;28;20032;-71
2022/08/20 08:00:40;;;;;;;11.93;8.75;;;;;;;29.76;56.38;99859.31;4936153;28;20412;-74
2022/08/20 08:03:06;;;;;;;10.68;8.73;;;;;;;29.94;54.19;99875.28;4951247;28;20046;-74
2022/08/20 08:05:34;;;;;;;16.00;10.40;;;;;;;29.94;56.73;99862.81;4951476;28;20031;-70
2022/08/20 08:08:01;;;;;;;12.20;8.32;;;;;;;30.10;52.81;99878.81;4951075;28;20117;-73
2022/08/20 08:10:27;;;;;;;14.80;9.27;;;;;;;30.29;53.20;99861.84;4951018;28;20096;-77
2022/08/20 08:12:56;;;;;;;11.15;8.35;;;;;;;30.39;52.59;99875.50;4951010;28;20051;-71
2022/08/20 08:15:26;;;;;;;13.32;9.38;;;;;;;30.45;53.78;99865.38;4951113;28;20035;-72
2022/08/20 08:17:55;;;;;;;14.02;9.60;;;;;;;30.55;55.25;99865.75;4951001;28;20066;-74
2022/08/20 08:20:22;;;;;;;12.13;9.15;;;;;;;30.62;53.02;99863.63;4950847;28;20039;-74
2022/08/20 08:22:47;;;;;;;13.77;7.82;;;;;;;30.70;50.50;99853.38;4950752;28;20071;-71
2022/08/20 08:25:14;;;;;;;10.95;7.70;;;;;;;30.82;51.81;99838.50;4951199;28;20059;-75
2022/08/20 08:27:42;;;;;;;15.52;10.95;;;;;;;31.07;49.50;99853.94;4951031;28;20031;-73
2022/08/20 08:30:10;;;;;;;13.50;11.25;;;;;;;31.08;48.42;99839.66;4950583;28;20110;-70
2022/08/20 08:32:36;;;;;;;13.00;8.82;;;;;;;31.10;49.59;99840.41;4950922;28;20409;-71
2022/08/20 08:35:06;;;;;;;11.82;8.25;;;;;;;31.25;51.87;99835.13;4950680;28;20042;-74
2022/08/20 08:37:31;;;;;;;13.60;8.27;;;;;;;31.27;49.11;99835.91;4950631;28;20481;-73
2022/08/20 08:39:57;;;;;;;11.38;8.30;;;;;;;31.29;51.51;99834.00;4950744;28;20084;-71
2022/08/20 08:42:54;;;;;;;13.18;7.32;;;;;;;31.38;46.84;99830.78;4950177;28;20031;-74
2022/08/20 08:45:21;;;;;;;12.30;8.43;;;;;;;31.43;50.15;99828.69;4933184;28;20031;-73
2022/08/20 08:47:46;;;;;;;13.95;8.38;;;;;;;31.48;46.28;99796.41;4950383;28;20062;-73
2022/08/20 08:50:23;;;;;;;11.10;7.57;;;;;;;31.74;47.51;99821.50;4950353;28;20457;-73
2022/08/20 08:52:53;;;;;;;14.43;7.90;;;;;;;31.85;46.35;99820.84;4950472;28;20118;-73
2022/08/20 08:55:20;;;;;;;15.25;7.25;;;;;;;31.89;44.42;99821.50;4950441;28;20031;-70
2022/08/20 08:57:48;;;;;;;8.80;7.63;;;;;;;31.97;45.40;99815.69;4950412;28;20023;-71
2022/08/20 09:00:17;;;;;;;14.18;8.07;;;;;;;32.05;46.38;99813.38;4950142;28;20485;-73
2022/08/20 09:03:01;;;;;;;;;;;;;;;32.06;45.46;99809.75;4950836;28;20038;-73
2022/08/20 09:05:37;;;;;;;11.25;8.25;;;;;;;32.16;47.83;99797.53;4950432;28;19911;-74
2022/08/20 09:08:07;;;;;;;15.27;8.07;;;;;;;32.23;43.71;99803.38;4950349;28;20035;-77
2022/08/20 09:10:33;;;;;;;13.35;8.02;;;;;;;32.04;44.65;99777.81;4950227;28;20027;-74
2022/08/20 09:13:00;;;;;;;12.93;8.05;;;;;;;32.11;44.98;99770.28;4950047;28;20108;-75
2022/08/20 09:15:25;;;;;;;19.42;8.40;;;;;;;32.23;42.69;99798.03;4950267;28;20098;-70
2022/08/20 09:17:51;;;;;;;10.68;7.30;;;;;;;32.35;40.80;99791.03;4943736;28;20521;-79
2022/08/20 09:20:17;;;;;;;11.73;7.13;;;;;;;32.42;40.29;99779.84;4939936;28;20047;-74
2022/08/20 09:22:42;;;;;;;12.80;7.45;;;;;;;32.55;39.22;99785.25;4939492;28;20027;-73
2022/08/20 09:25:08;;;;;;;11.52;6.88;;;;;;;32.77;39.37;99783.00;4940856;28;20028;-77
2022/08/20 09:27:34;;;;;;;9.05;6.50;;;;;;;32.80;40.47;99780.09;4939843;28;20031;-74
2022/08/20 09:29:59;;;;;;;11.20;7.18;;;;;;;32.35;39.77;99745.63;4937521;28;20031;-71
2022/08/20 09:32:25;;;;;;;10.52;7.35;;;;;;;32.68;39.43;99782.59;4950227;28;20029;-75
2022/08/20 09:34:58;;;;;;;16.60;7.63;;;;;;;32.83;38.25;99780.75;4960898;28;20035;-73
2022/08/20 09:37:26;;;;;;;17.42;9.35;;;;;;;32.91;38.56;99774.88;4930483;28;20094;-70
2022/08/20 09:39:52;;;;;;;76.05;10.50;;;;;;;33.10;38.09;99766.47;4931263;28;20031;-73
2022/08/20 09:42:29;;;;;;;11.93;7.22;;;;;;;33.32;37.94;99771.25;4929869;28;20035;-74
2022/08/20 09:44:55;;;;;;;13.00;7.95;;;;;;;33.50;37.37;99768.25;4929557;28;20459;-75
2022/08/20 09:47:22;;;;;;;12.07;7.85;;;;;;;33.68;36.81;99769.63;4935042;28;20493;-72
2022/08/20 09:49:47;;;;;;;9.60;7.10;;;;;;;33.81;36.67;99780.28;4931862;28;20497;-72
2022/08/20 09:52:21;;;;;;;10.15;8.40;;;;;;;33.96;38.73;99769.44;4929269;28;20035;-72
2022/08/20 09:54:47;;;;;;;10.32;7.65;;;;;;;33.94;38.52;99763.38;4929335;28;20027;-74
2022/08/20 09:57:15;;;;;;;9.75;7.70;;;;;;;34.00;37.49;99757.56;4929592;28;20019;-74
2022/08/20 09:59:41;;;;;;;10.43;7.30;;;;;;;34.15;37.39;99766.31;4994774;28;20036;-73
2022/08/20 10:02:07;;;;;;;14.93;8.70;;;;;;;34.26;38.10;99754.78;4935317;28;20032;-73
2022/08/20 10:04:33;;;;;;;11.07;8.07;;;;;;;34.16;38.13;99751.97;4929970;28;20454;-70
2022/08/20 10:06:58;;;;;;;9.35;7.82;;;;;;;34.22;38.91;99727.41;4927749;28;20024;-73
2022/08/20 10:09:24;;;;;;;12.00;7.80;;;;;;;34.50;36.71;99750.31;4932014;28;20028;-71
2022/08/20 10:11:50;;;;;;;9.68;8.20;;;;;;;34.45;40.84;99743.59;4948889;28;20046;-72
2022/08/20 10:14:16;;;;;;;11.20;8.02;;;;;;;34.73;35.15;99747.75;4948876;28;20081;-74
2022/08/20 10:16:41;;;;;;;11.98;7.88;;;;;;;34.85;33.76;99740.56;4934046;28;20066;-73
2022/08/20 10:19:07;;;;;;;10.10;8.13;;;;;;;34.79;34.06;99743.72;4932587;28;20397;-71
2022/08/20 10:21:32;;;;;;;11.95;7.72;;;;;;;34.72;34.44;99716.53;4925942;28;20027;-76
2022/08/20 10:23:58;;;;;;;13.48;7.63;;;;;;;34.93;34.97;99734.63;4940646;28;20028;-71
2022/08/20 10:26:24;;;;;;;8.75;7.05;;;;;;;34.85;38.27;99704.88;4934873;28;20504;-73
2022/08/20 10:28:50;;;;;;;14.55;8.48;;;;;;;35.19;39.57;99718.34;4938995;28;20040;-73
2022/08/20 10:31:15;;;;;;;11.20;7.57;;;;;;;35.36;35.69;99727.78;4937166;28;20489;-74
2022/08/20 10:33:41;;;;;;;12.77;7.95;;;;;;;35.44;36.92;99717.28;4943699;28;20031;-74
2022/08/20 10:36:11;;;;;;;17.00;8.52;;;;;;;35.55;33.71;99722.66;4948671;28;20027;-73
2022/08/20 10:38:37;;;;;;;12.20;8.40;;;;;;;35.57;33.45;99720.72;4948859;28;20020;-71
2022/08/20 10:41:03;;;;;;;9.60;7.95;;;;;;;35.65;32.76;99719.25;4948724;28;20051;-74
2022/08/20 10:43:28;;;;;;;9.65;7.65;;;;;;;35.63;34.02;99714.84;4948624;28;20024;-75
2022/08/20 10:45:54;;;;;;;13.15;7.90;;;;;;;35.55;36.25;99682.38;4955907;28;20107;-76
2022/08/20 10:48:20;;;;;;;13.60;8.02;;;;;;;35.82;34.32;99708.00;4942605;28;20023;-76
2022/08/20 10:50:46;;;;;;;10.82;7.95;;;;;;;35.90;36.03;99699.31;4941680;28;20070;-75
2022/08/20 10:53:11;;;;;;;16.08;8.07;;;;;;;35.74;32.75;99675.53;4948913;28;20062;-74
2022/08/20 10:55:38;;;;;;;10.40;7.80;;;;;;;35.85;32.81;99696.13;4941305;28;20023;-73
2022/08/20 10:58:05;;;;;;;11.27;8.02;;;;;;;36.04;34.60;99698.19;4938793;28;20028;-75
2022/08/20 11:00:31;;;;;;;16.52;8.20;;;;;;;36.30;32.71;99689.81;4910710;28;20050;-73
2022/08/20 11:02:57;;;;;;;11.32;8.20;;;;;;;36.34;33.58;99692.09;4929789;28;20047;-73
2022/08/20 11:05:23;;;;;;;11.13;7.40;;;;;;;36.31;33.28;99675.38;4934538;28;20078;-75
2022/08/20 11:07:49;;;;;;;11.75;7.63;;;;;;;36.27;32.11;99683.69;4931515;28;20019;-75
2022/08/20 11:10:15;;;;;;;10.40;8.15;;;;;;;36.46;30.45;99681.34;4932121;28;20032;-75
2022/08/20 11:12:41;;;;;;;10.75;7.80;;;;;;;36.47;30.89;99680.34;4934881;28;20472;-73
2022/08/20 11:15:07;;;;;;;10.98;8.15;;;;;;;36.43;32.67;99677.91;4945297;28;20061;-71
2022/08/20 11:17:35;;;;;;;10.85;7.78;;;;;;;36.40;31.70;99675.50;4939557;28;20027;-72
2022/08/20 11:20:04;;;;;;;12.50;8.80;;;;;;;36.40;31.34;99663.88;4931823;28;20063;-74
2022/08/20 11:22:30;;;;;;;11.10;8.27;;;;;;;36.51;33.32;99671.88;4931943;28;20452;-74
2022/08/20 11:25:15;;;;;;;11.68;8.88;;;;;;;36.47;30.80;99661.53;5009440;28;20524;-74
2022/08/20 11:27:45;;;;;;;10.07;7.97;;;;;;;36.70;31.46;99652.34;4993314;28;20072;-73
2022/08/20 11:30:17;;;;;;;10.77;8.13;;;;;;;36.43;32.41;99631.38;4992186;28;20060;-73
2022/08/20 11:32:43;;;;;;;12.77;8.85;;;;;;;36.64;33.96;99643.94;5009473;28;20048;-74